createdAt,value
2022-08-18T00:00:35.822Z,973.41
2022-08-18T00:01:35.958Z,973.44
2022-08-18T00:02:35.887Z,973.46
2022-08-18T00:03:55.932Z,973.44
2022-08-18T00:04:48.458Z,973.48
2022-08-18T00:05:38.435Z,973.55
2022-08-18T00:06:35.817Z,973.51
2022-08-18T00:07:35.738Z,973.59
2022-08-18T00:08:38.527Z,973.70
2022-08-18T00:09:35.714Z,973.80
2022-08-18T00:10:35.702Z,973.97
2022-08-18T00:11:41.726Z,974.05
2022-08-18T00:13:46.033Z,974.07
2022-08-18T00:14:46.112Z,974.12
2022-08-18T00:15:49.041Z,974.10
2022-08-18T00:16:45.989Z,974.06
2022-08-18T00:17:45.981Z,973.84
2022-08-18T00:18:46.038Z,973.83
2022-08-18T00:19:48.190Z,973.75
2022-08-18T00:20:45.932Z,973.75
2022-08-18T00:21:46.023Z,973.79
2022-08-18T00:22:45.976Z,973.94
2022-08-18T00:23:47.002Z,974.08
2022-08-18T00:24:47.473Z,974.25
2022-08-18T00:25:45.884Z,974.26
2022-08-18T00:26:48.651Z,974.33
2022-08-18T00:27:45.849Z,974.31
2022-08-18T00:28:45.905Z,974.30
2022-08-18T00:29:45.822Z,974.25
2022-08-18T00:30:45.815Z,974.09
2022-08-18T00:31:45.794Z,974.02
2022-08-18T00:32:45.825Z,974.01
2022-08-18T00:33:45.835Z,973.95
2022-08-18T00:34:45.745Z,974.01
2022-08-18T00:35:45.754Z,974.10
2022-08-18T00:36:45.733Z,974.10
2022-08-18T00:37:45.776Z,974.20
2022-08-18T00:38:45.770Z,974.32
2022-08-18T00:39:46.576Z,974.39
2022-08-18T00:40:45.677Z,974.38
2022-08-18T00:41:45.727Z,974.35
2022-08-18T00:42:46.768Z,974.30
2022-08-18T00:43:45.643Z,974.30
2022-08-18T00:44:45.707Z,974.31
2022-08-18T00:45:45.717Z,974.23
2022-08-18T00:46:45.620Z,974.29
2022-08-18T00:47:45.678Z,974.22
2022-08-18T00:48:48.777Z,974.28
2022-08-18T00:49:45.644Z,974.23
2022-08-18T00:50:45.650Z,974.26
2022-08-18T00:51:45.551Z,974.30
2022-08-18T00:52:45.599Z,974.30
2022-08-18T00:53:47.662Z,974.37
2022-08-18T00:54:45.573Z,974.37
2022-08-18T00:55:53.675Z,974.46
2022-08-18T00:56:46.530Z,974.44
2022-08-18T00:57:45.552Z,974.46
2022-08-18T00:58:45.502Z,974.44
2022-08-18T00:59:45.450Z,974.40
2022-08-18T01:00:45.541Z,974.47
2022-08-18T01:01:45.423Z,974.43
2022-08-18T01:02:45.464Z,974.47
2022-08-18T01:03:45.383Z,974.53
2022-08-18T01:04:45.435Z,974.49
2022-08-18T01:05:45.462Z,974.62
2022-08-18T01:06:45.454Z,974.68
2022-08-18T01:07:45.447Z,974.67
2022-08-18T01:08:45.404Z,974.69
2022-08-18T01:09:45.318Z,974.72
2022-08-18T01:10:45.385Z,974.66
2022-08-18T01:11:45.289Z,974.70
2022-08-18T01:12:46.828Z,974.80
2022-08-18T01:13:45.264Z,974.85
2022-08-18T01:14:45.257Z,974.88
2022-08-18T01:15:45.281Z,974.96
2022-08-18T01:16:56.789Z,974.90
2022-08-18T01:17:46.245Z,974.98
2022-08-18T01:18:45.239Z,974.98
2022-08-18T01:19:45.198Z,975.06
2022-08-18T01:20:45.188Z,975.03
2022-08-18T01:21:45.167Z,975.08
2022-08-18T01:22:45.258Z,975.02
2022-08-18T01:23:45.148Z,974.97
2022-08-18T01:24:45.147Z,975.04
2022-08-18T01:25:45.141Z,974.97
2022-08-18T01:26:45.846Z,975.03
2022-08-18T01:27:45.208Z,974.95
2022-08-18T01:28:46.175Z,974.92
2022-08-18T01:29:45.080Z,975.03
2022-08-18T01:30:45.059Z,975.02
2022-08-18T01:31:55.079Z,975.06
2022-08-18T01:32:46.054Z,974.97
2022-08-18T01:33:45.078Z,975.01
2022-08-18T01:34:45.044Z,975.04
2022-08-18T01:35:44.990Z,975.00
2022-08-18T01:36:45.074Z,975.10
2022-08-18T01:37:45.099Z,975.02
2022-08-18T01:38:44.971Z,975.02
2022-08-18T01:41:17.375Z,975.00
2022-08-18T01:41:23.543Z,975.01
2022-08-18T01:41:45.975Z,975.04
2022-08-18T01:42:44.992Z,975.00
2022-08-18T01:43:45.033Z,974.97
2022-08-18T01:44:44.892Z,974.94
2022-08-18T01:45:44.902Z,974.96
2022-08-18T01:46:44.911Z,974.96
2022-08-18T01:47:48.261Z,974.95
2022-08-18T01:48:44.923Z,974.95
2022-08-18T01:49:44.861Z,974.98
2022-08-18T01:50:44.833Z,975.03
2022-08-18T01:51:44.797Z,975.06
2022-08-18T01:52:44.861Z,975.16
2022-08-18T01:53:44.874Z,975.17
2022-08-18T01:54:44.814Z,975.15
2022-08-18T01:55:44.766Z,975.14
2022-08-18T01:56:44.782Z,975.12
2022-08-18T01:57:44.999Z,975.12
2022-08-18T01:58:46.765Z,975.13
2022-08-18T01:59:44.708Z,975.08
2022-08-18T02:00:44.695Z,975.04
2022-08-18T02:01:50.339Z,975.02
2022-08-18T02:02:45.737Z,974.94
2022-08-18T02:03:44.637Z,975.06
2022-08-18T02:04:44.651Z,975.00
2022-08-18T02:05:44.618Z,974.99
2022-08-18T02:06:47.826Z,974.96
2022-08-18T02:07:44.645Z,974.94
2022-08-18T02:08:46.481Z,974.92
2022-08-18T02:09:45.568Z,974.80
2022-08-18T02:10:44.550Z,974.83
2022-08-18T02:11:44.539Z,974.79
2022-08-18T02:12:44.580Z,974.71
2022-08-18T02:13:44.522Z,974.67
2022-08-18T02:14:45.551Z,974.69
2022-08-18T02:15:44.484Z,974.64
2022-08-18T02:16:44.481Z,974.58
2022-08-18T02:17:44.563Z,974.64
2022-08-18T02:18:48.497Z,974.60
2022-08-18T02:19:44.465Z,974.59
2022-08-18T02:20:44.887Z,974.55
2022-08-18T02:21:44.442Z,974.55
2022-08-18T02:22:44.404Z,974.59
2022-08-18T02:23:44.879Z,974.58
2022-08-18T02:24:45.420Z,974.52
2022-08-18T02:25:44.353Z,974.56
2022-08-18T02:26:44.375Z,974.56
2022-08-18T02:27:44.338Z,974.50
2022-08-18T02:28:44.386Z,974.54
2022-08-18T02:29:44.429Z,974.49
2022-08-18T02:30:44.406Z,974.53
2022-08-18T02:31:44.274Z,974.49
2022-08-18T02:32:44.286Z,974.53
2022-08-18T02:33:51.573Z,974.51
2022-08-18T02:34:45.253Z,974.51
2022-08-18T02:35:44.334Z,974.46
2022-08-18T02:36:44.247Z,974.46
2022-08-18T02:37:44.244Z,974.40
2022-08-18T02:38:44.261Z,974.37
2022-08-18T02:39:45.291Z,974.35
2022-08-18T02:40:44.183Z,974.36
2022-08-18T02:41:44.150Z,974.42
2022-08-18T02:42:44.146Z,974.42
2022-08-18T02:43:44.137Z,974.34
2022-08-18T02:44:45.137Z,974.42
2022-08-18T02:45:44.094Z,974.42
2022-08-18T02:46:44.098Z,974.43
2022-08-18T02:47:44.373Z,974.41
2022-08-18T02:48:44.118Z,974.38
2022-08-18T02:49:44.048Z,974.34
2022-08-18T02:50:44.060Z,974.44
2022-08-18T02:51:44.037Z,974.38
2022-08-18T02:52:44.039Z,974.34
2022-08-18T02:53:44.000Z,974.33
2022-08-18T02:54:44.088Z,974.30
2022-08-18T02:55:44.059Z,974.27
2022-08-18T02:56:43.961Z,974.28
2022-08-18T02:57:43.970Z,974.22
2022-08-18T02:58:43.947Z,974.16
2022-08-18T02:59:46.866Z,974.14
2022-08-18T03:00:43.991Z,974.21
2022-08-18T03:01:45.039Z,974.21
2022-08-18T03:02:43.900Z,974.22
2022-08-18T03:03:43.912Z,974.21
2022-08-18T03:04:43.953Z,974.25
2022-08-18T03:05:43.921Z,974.27
2022-08-18T03:06:44.206Z,974.30
2022-08-18T03:07:43.833Z,974.20
2022-08-18T03:08:43.843Z,974.26
2022-08-18T03:09:43.887Z,974.22
2022-08-18T03:10:43.864Z,974.26
2022-08-18T03:11:43.851Z,974.24
2022-08-18T03:12:43.765Z,974.23
2022-08-18T03:13:43.749Z,974.25
2022-08-18T03:14:43.744Z,974.26
2022-08-18T03:15:43.711Z,974.17
2022-08-18T03:16:54.072Z,974.13
2022-08-18T03:17:44.722Z,974.20
2022-08-18T03:18:43.705Z,974.25
2022-08-18T03:19:43.746Z,974.19
2022-08-18T03:20:43.744Z,974.19
2022-08-18T03:21:43.726Z,974.19
2022-08-18T03:22:43.635Z,974.24
2022-08-18T03:23:43.636Z,974.25
2022-08-18T03:24:44.606Z,974.28
2022-08-18T03:25:43.649Z,974.26
2022-08-18T03:26:43.658Z,974.23
2022-08-18T03:27:43.573Z,974.23
2022-08-18T03:28:43.568Z,974.21
2022-08-18T03:29:43.541Z,974.21
2022-08-18T03:30:45.567Z,974.20
2022-08-18T03:31:43.593Z,974.25
2022-08-18T03:32:45.944Z,974.17
2022-08-18T03:33:43.500Z,974.20
2022-08-18T03:34:43.476Z,974.19
2022-08-18T03:35:43.509Z,974.19
2022-08-18T03:36:43.591Z,974.23
2022-08-18T03:37:44.487Z,974.22
2022-08-18T03:38:43.438Z,974.23
2022-08-18T03:39:43.506Z,974.20
2022-08-18T03:40:43.467Z,974.11
2022-08-18T03:42:00.057Z,974.12
2022-08-18T03:42:44.367Z,974.08
2022-08-18T03:43:51.087Z,973.96
2022-08-18T03:44:44.443Z,973.95
2022-08-18T03:45:43.379Z,973.93
2022-08-18T03:46:43.391Z,973.86
2022-08-18T03:47:43.293Z,973.94
2022-08-18T03:48:43.302Z,973.89
2022-08-18T03:49:43.332Z,973.89
2022-08-18T04:03:25.898Z,974.01
2022-08-18T04:04:25.877Z,973.94
2022-08-18T04:05:25.868Z,973.91
2022-08-18T04:06:30.303Z,973.89
2022-08-18T04:07:25.836Z,973.90
2022-08-18T04:08:25.833Z,973.88
2022-08-18T04:09:25.824Z,973.90
2022-08-18T04:10:25.800Z,973.95
2022-08-18T04:11:25.806Z,974.01
2022-08-18T04:12:25.782Z,973.96
2022-08-18T04:13:25.762Z,974.00
2022-08-18T04:14:25.761Z,974.07
2022-08-18T04:15:25.739Z,974.04
2022-08-18T04:16:33.230Z,974.14
2022-08-18T04:17:25.706Z,974.14
2022-08-18T04:18:25.691Z,974.17
2022-08-18T04:19:27.267Z,974.11
2022-08-18T04:20:25.673Z,974.14
2022-08-18T04:21:25.663Z,974.16
2022-08-18T04:22:25.659Z,974.20
2022-08-18T04:23:25.642Z,974.18
2022-08-18T04:24:25.640Z,974.19
2022-08-18T04:25:28.397Z,974.18
2022-08-18T04:26:26.602Z,974.24
2022-08-18T04:27:25.582Z,974.23
2022-08-18T04:28:25.577Z,974.21
2022-08-18T04:29:25.563Z,974.20
2022-08-18T04:30:25.554Z,974.22
2022-08-18T04:31:25.561Z,974.27
2022-08-18T04:32:30.056Z,974.27
2022-08-18T04:33:25.520Z,974.26
2022-08-18T04:34:25.507Z,974.23
2022-08-18T04:35:25.475Z,974.22
2022-08-18T04:36:25.476Z,974.17
2022-08-18T04:37:25.468Z,974.20
2022-08-18T04:38:25.450Z,974.23
2022-08-18T04:39:25.475Z,974.23
2022-08-18T04:40:25.621Z,974.28
2022-08-18T04:41:25.407Z,974.32
2022-08-18T04:42:25.406Z,974.33
2022-08-18T04:43:25.398Z,974.42
2022-08-18T04:44:25.366Z,974.43
2022-08-18T04:45:25.376Z,974.47
2022-08-18T04:46:25.354Z,974.46
2022-08-18T04:47:25.348Z,974.54
2022-08-18T04:48:25.328Z,974.51
2022-08-18T04:49:25.341Z,974.54
2022-08-18T04:50:25.311Z,974.51
2022-08-18T04:52:36.412Z,974.53
2022-08-18T04:52:39.766Z,974.47
2022-08-18T04:53:26.271Z,974.56
2022-08-18T04:54:25.270Z,974.53
2022-08-18T04:55:25.273Z,974.51
2022-08-18T04:56:25.219Z,974.48
2022-08-18T04:57:25.199Z,974.49
2022-08-18T04:58:25.192Z,974.53
2022-08-18T04:59:25.192Z,974.49
2022-08-18T05:00:25.198Z,974.47
2022-08-18T05:01:25.285Z,974.50
2022-08-18T05:02:25.142Z,974.51
2022-08-18T05:03:25.145Z,974.54
2022-08-18T05:04:25.123Z,974.54
2022-08-18T05:05:25.133Z,974.55
2022-08-18T05:06:25.090Z,974.60
2022-08-18T05:07:25.096Z,974.56
2022-08-18T05:08:25.072Z,974.50
2022-08-18T05:09:25.063Z,974.53
2022-08-18T05:10:25.063Z,974.54
2022-08-18T05:11:25.041Z,974.54
2022-08-18T05:12:26.389Z,974.43
2022-08-18T05:13:25.022Z,974.41
2022-08-18T05:14:25.045Z,974.45
2022-08-18T05:15:25.008Z,974.47
2022-08-18T05:16:24.973Z,974.48
2022-08-18T05:17:24.988Z,974.49
2022-08-18T05:18:24.944Z,974.46
2022-08-18T05:19:26.561Z,974.42
2022-08-18T05:20:24.952Z,974.42
2022-08-18T05:21:24.957Z,974.42
2022-08-18T05:22:30.589Z,974.46
2022-08-18T05:23:25.896Z,974.42
2022-08-18T05:24:24.894Z,974.42
2022-08-18T05:25:24.869Z,974.48
2022-08-18T05:26:24.856Z,974.46
2022-08-18T05:27:24.844Z,974.49
2022-08-18T05:28:24.817Z,974.49
2022-08-18T05:29:24.832Z,974.49
2022-08-18T05:30:24.818Z,974.52
2022-08-18T05:31:24.806Z,974.49
2022-08-18T05:32:42.521Z,974.50
2022-08-18T05:33:25.757Z,974.47
2022-08-18T05:34:24.738Z,974.50
2022-08-18T05:35:24.751Z,974.48
2022-08-18T05:36:24.730Z,974.44
2022-08-18T05:37:24.708Z,974.40
2022-08-18T05:38:24.711Z,974.44
2022-08-18T05:39:24.689Z,974.39
2022-08-18T05:40:24.735Z,974.36
2022-08-18T05:41:24.660Z,974.35
2022-08-18T05:42:24.670Z,974.42
2022-08-18T05:43:24.633Z,974.37
2022-08-18T05:44:24.621Z,974.36
2022-08-18T05:45:24.627Z,974.42
2022-08-18T05:46:24.592Z,974.40
2022-08-18T05:47:24.593Z,974.46
2022-08-18T05:48:24.577Z,974.48
2022-08-18T05:49:24.554Z,974.54
2022-08-18T05:50:24.559Z,974.51
2022-08-18T05:51:24.552Z,974.55
2022-08-18T05:52:24.531Z,974.59
2022-08-18T05:53:24.516Z,974.56
2022-08-18T05:54:24.496Z,974.60
2022-08-18T05:55:24.493Z,974.67
2022-08-18T05:56:24.481Z,974.68
2022-08-18T05:57:24.484Z,974.73
2022-08-18T05:58:24.446Z,974.75
2022-08-18T05:59:25.436Z,974.77
2022-08-18T06:00:24.434Z,974.71
2022-08-18T06:01:24.413Z,974.78
2022-08-18T06:02:24.416Z,974.77
2022-08-18T06:03:24.511Z,974.75
2022-08-18T06:04:24.406Z,974.68
2022-08-18T06:05:24.366Z,974.78
2022-08-18T06:06:24.360Z,974.70
2022-08-18T06:07:24.367Z,974.70
2022-08-18T06:08:24.335Z,974.77
2022-08-18T06:09:24.329Z,974.74
2022-08-18T06:10:24.307Z,974.75
2022-08-18T06:11:24.296Z,974.76
2022-08-18T06:12:24.300Z,974.79
2022-08-18T06:13:24.276Z,974.79
2022-08-18T06:14:24.300Z,974.76
2022-08-18T06:15:24.256Z,974.79
2022-08-18T06:16:24.222Z,974.76
2022-08-18T06:17:24.221Z,974.80
2022-08-18T06:18:24.230Z,974.81
2022-08-18T06:19:24.208Z,974.84
2022-08-18T06:20:24.179Z,974.82
2022-08-18T06:21:24.601Z,974.83
2022-08-18T06:22:24.157Z,974.89
2022-08-18T06:23:24.149Z,974.85
2022-08-18T06:24:24.150Z,974.89
2022-08-18T06:25:24.129Z,974.93
2022-08-18T06:26:24.107Z,974.91
2022-08-18T06:27:24.098Z,974.97
2022-08-18T06:28:24.082Z,974.96
2022-08-18T06:29:24.070Z,974.89
2022-08-18T06:30:24.075Z,974.98
2022-08-18T06:31:28.847Z,974.97
2022-08-18T06:32:25.036Z,974.99
2022-08-18T06:33:24.022Z,974.96
2022-08-18T06:34:23.991Z,975.03
2022-08-18T06:35:24.003Z,975.06
2022-08-18T06:36:23.971Z,974.98
2022-08-18T06:37:23.966Z,975.04
2022-08-18T06:38:24.001Z,974.97
2022-08-18T06:39:23.976Z,974.87
2022-08-18T06:40:23.932Z,974.88
2022-08-18T06:41:40.720Z,974.81
2022-08-18T06:42:24.926Z,974.84
2022-08-18T06:43:23.891Z,974.87
2022-08-18T06:44:23.865Z,974.86
2022-08-18T06:45:23.876Z,974.93
2022-08-18T06:46:24.856Z,974.90
2022-08-18T06:47:23.845Z,974.83
2022-08-18T06:48:23.815Z,974.85
2022-08-18T06:49:23.825Z,974.86
2022-08-18T06:50:23.811Z,974.83
2022-08-18T06:51:23.804Z,974.97
2022-08-18T06:52:23.769Z,974.86
2022-08-18T06:53:27.815Z,974.86
2022-08-18T06:54:23.745Z,974.86
2022-08-18T06:55:23.747Z,974.88
2022-08-18T06:56:26.529Z,974.91
2022-08-18T06:57:23.707Z,974.89
2022-08-18T06:58:23.706Z,974.99
2022-08-18T06:59:23.691Z,975.01
2022-08-18T07:00:23.686Z,974.98
2022-08-18T07:01:23.747Z,974.96
2022-08-18T07:02:23.651Z,974.94
2022-08-18T07:03:23.631Z,974.92
2022-08-18T07:04:23.620Z,974.93
2022-08-18T07:05:23.643Z,974.88
2022-08-18T07:06:23.590Z,974.87
2022-08-18T07:07:23.589Z,974.90
2022-08-18T07:08:23.564Z,974.81
2022-08-18T07:09:23.592Z,974.91
2022-08-18T07:10:23.562Z,974.84
2022-08-18T07:11:23.542Z,974.84
2022-08-18T07:12:25.031Z,974.81
2022-08-18T07:13:23.511Z,974.71
2022-08-18T07:14:23.511Z,974.73
2022-08-18T07:15:23.511Z,974.71
2022-08-18T07:16:47.019Z,974.68
2022-08-18T07:17:43.543Z,974.67
2022-08-18T07:18:24.444Z,974.67
2022-08-18T07:19:23.425Z,974.71
2022-08-18T07:20:23.427Z,974.67
2022-08-18T07:21:23.413Z,974.62
2022-08-18T07:22:27.306Z,974.64
2022-08-18T07:23:24.384Z,974.70
2022-08-18T07:24:25.158Z,974.61
2022-08-18T07:25:23.355Z,974.68
2022-08-18T07:26:23.345Z,974.68
2022-08-18T07:27:23.348Z,974.67
2022-08-18T07:28:23.306Z,974.66
2022-08-18T07:29:23.302Z,974.68
2022-08-18T07:30:23.333Z,974.72
2022-08-18T07:31:23.288Z,974.72
2022-08-18T07:32:23.256Z,974.71
2022-08-18T07:33:23.246Z,974.68
2022-08-18T07:34:23.228Z,974.69
2022-08-18T07:35:23.227Z,974.73
2022-08-18T07:36:23.211Z,974.71
2022-08-18T07:37:28.452Z,974.78
2022-08-18T07:38:42.015Z,974.86
2022-08-18T07:39:24.178Z,974.89
2022-08-18T07:40:23.277Z,974.92
2022-08-18T07:41:23.170Z,974.90
2022-08-18T07:42:37.255Z,974.95
2022-08-18T07:43:24.123Z,974.95
2022-08-18T07:44:23.100Z,974.98
2022-08-18T07:45:24.019Z,974.93
2022-08-18T07:46:23.101Z,974.99
2022-08-18T07:47:23.068Z,975.03
2022-08-18T07:48:40.217Z,975.04
2022-08-18T07:49:24.058Z,975.02
2022-08-18T07:50:55.223Z,975.06
2022-08-18T07:51:24.016Z,975.08
2022-08-18T07:52:36.618Z,975.03
2022-08-18T07:53:23.983Z,975.10
2022-08-18T07:54:47.775Z,975.04
2022-08-18T07:55:23.962Z,975.08
2022-08-18T07:56:22.950Z,975.11
2022-08-18T07:57:22.934Z,975.04
2022-08-18T07:58:22.921Z,975.02
2022-08-18T07:59:22.904Z,975.04
2022-08-18T08:00:41.118Z,975.03
2022-08-18T08:01:23.992Z,975.00
2022-08-18T08:02:22.866Z,974.98
2022-08-18T08:03:22.854Z,975.00
2022-08-18T08:04:26.015Z,974.96
2022-08-18T08:05:22.824Z,974.96
2022-08-18T08:06:22.815Z,974.91
2022-08-18T08:07:24.777Z,974.94
2022-08-18T08:08:25.517Z,975.03
2022-08-18T08:09:22.777Z,975.03
2022-08-18T08:10:22.755Z,974.87
2022-08-18T08:11:22.771Z,974.91
2022-08-18T08:12:22.727Z,974.88
2022-08-18T08:13:51.368Z,974.97
2022-08-18T08:14:26.502Z,974.98
2022-08-18T08:15:27.115Z,974.99
2022-08-18T08:16:22.698Z,974.95
2022-08-18T08:17:23.695Z,974.95
2022-08-18T08:18:22.649Z,974.95
2022-08-18T08:19:42.375Z,974.96
2022-08-18T08:20:23.627Z,974.98
2022-08-18T08:21:23.627Z,974.97
2022-08-18T08:22:22.599Z,974.96
2022-08-18T08:23:22.589Z,974.92
2022-08-18T08:24:22.585Z,974.91
2022-08-18T08:25:45.181Z,974.80
2022-08-18T08:26:23.561Z,974.68
2022-08-18T08:27:22.545Z,974.65
2022-08-18T08:28:22.530Z,974.62
2022-08-18T08:29:22.528Z,974.66
2022-08-18T08:30:22.497Z,974.68
2022-08-18T08:31:36.698Z,974.63
2022-08-18T08:32:23.479Z,974.68
2022-08-18T08:33:22.471Z,974.68
2022-08-18T08:34:22.453Z,974.67
2022-08-18T08:35:49.668Z,974.65
2022-08-18T08:36:23.462Z,974.65
2022-08-18T08:37:22.427Z,974.68
2022-08-18T08:38:40.250Z,974.66
2022-08-18T08:39:23.395Z,974.67
2022-08-18T08:40:22.405Z,974.66
2022-08-18T08:41:22.366Z,974.66
2022-08-18T08:42:32.161Z,974.62
2022-08-18T08:43:23.345Z,974.66
2022-08-18T08:44:22.356Z,974.63
2022-08-18T08:45:22.316Z,974.65
2022-08-18T08:46:22.325Z,974.60
2022-08-18T08:47:23.249Z,974.60
2022-08-18T08:48:22.296Z,974.59
2022-08-18T08:49:22.256Z,974.53
2022-08-18T08:50:22.255Z,974.57
2022-08-18T08:51:22.257Z,974.52
2022-08-18T08:52:22.226Z,974.58
2022-08-18T08:53:22.217Z,974.54
2022-08-18T08:54:23.221Z,974.61
2022-08-18T08:55:22.178Z,974.62
2022-08-18T08:56:22.169Z,974.66
2022-08-18T08:57:22.171Z,974.64
2022-08-18T08:58:23.407Z,974.64
2022-08-18T08:59:23.130Z,974.55
2022-08-18T09:00:22.129Z,974.48
2022-08-18T09:01:22.202Z,974.54
2022-08-18T09:02:44.661Z,974.52
2022-08-18T09:03:29.940Z,974.52
2022-08-18T09:04:23.070Z,974.51
2022-08-18T09:05:22.053Z,974.44
2022-08-18T09:06:22.052Z,974.49
2022-08-18T09:07:22.043Z,974.42
2022-08-18T09:08:22.022Z,974.42
2022-08-18T09:09:22.011Z,974.41
2022-08-18T09:10:21.992Z,974.36
2022-08-18T09:11:21.983Z,974.39
2022-08-18T09:12:21.996Z,974.38
2022-08-18T09:13:26.866Z,974.34
2022-08-18T09:14:22.966Z,974.35
2022-08-18T09:15:21.925Z,974.36
2022-08-18T09:16:21.953Z,974.32
2022-08-18T09:17:21.915Z,974.25
2022-08-18T09:18:21.904Z,974.27
2022-08-18T09:19:21.877Z,974.22
2022-08-18T09:20:21.866Z,974.29
2022-08-18T09:21:21.845Z,974.27
2022-08-18T09:22:21.858Z,974.32
2022-08-18T09:23:21.827Z,974.27
2022-08-18T09:24:21.819Z,974.23
2022-08-18T09:25:21.804Z,974.15
2022-08-18T09:26:21.787Z,974.10
2022-08-18T09:27:21.787Z,974.06
2022-08-18T09:28:22.769Z,973.99
2022-08-18T09:29:21.748Z,973.99
2022-08-18T09:30:21.747Z,973.99
2022-08-18T09:31:21.741Z,973.94
2022-08-18T09:32:23.906Z,973.92
2022-08-18T09:33:22.921Z,973.98
2022-08-18T09:34:21.690Z,973.99
2022-08-18T09:35:23.114Z,973.94
2022-08-18T09:36:21.670Z,974.00
2022-08-18T09:37:24.545Z,974.00
2022-08-18T09:38:21.641Z,973.94
2022-08-18T09:39:23.233Z,973.94
2022-08-18T09:40:38.770Z,973.93
2022-08-18T09:41:22.643Z,973.85
2022-08-18T09:42:21.600Z,973.91
2022-08-18T09:43:22.575Z,973.88
2022-08-18T09:45:22.543Z,973.87
2022-08-18T09:46:22.532Z,973.89
2022-08-18T09:50:37.149Z,973.89
2022-08-18T10:03:56.365Z,973.84
2022-08-18T10:04:56.348Z,973.87
2022-08-18T10:05:56.346Z,973.90
2022-08-18T10:06:56.327Z,973.90
2022-08-18T10:07:56.319Z,973.91
2022-08-18T10:08:56.297Z,973.90
2022-08-18T10:09:56.278Z,973.93
2022-08-18T10:11:02.875Z,973.93
2022-08-18T10:11:57.255Z,973.92
2022-08-18T10:12:56.259Z,973.99
2022-08-18T10:13:56.237Z,974.03
2022-08-18T10:14:56.223Z,974.06
2022-08-18T10:15:56.227Z,974.07
2022-08-18T10:17:21.776Z,974.14
2022-08-18T10:17:57.188Z,974.13
2022-08-18T10:19:03.701Z,974.09
2022-08-18T10:19:56.158Z,974.04
2022-08-18T10:20:56.149Z,974.06
2022-08-18T10:21:57.140Z,973.95
2022-08-18T10:22:56.140Z,973.99
2022-08-18T10:24:14.704Z,974.04
2022-08-18T10:24:57.117Z,974.02
2022-08-18T10:25:56.081Z,974.04
2022-08-18T10:26:56.085Z,974.11
2022-08-18T10:27:56.072Z,974.09
2022-08-18T10:28:56.050Z,974.12
2022-08-18T10:29:56.035Z,974.14
2022-08-18T10:30:57.301Z,974.06
2022-08-18T10:31:57.478Z,974.13
2022-08-18T10:32:56.497Z,974.10
2022-08-18T10:33:55.982Z,974.12
2022-08-18T10:34:55.973Z,974.17
2022-08-18T10:35:55.952Z,974.11
2022-08-18T10:36:58.910Z,974.16
2022-08-18T10:37:55.934Z,974.15
2022-08-18T10:38:55.918Z,974.16
2022-08-18T10:39:55.936Z,974.20
2022-08-18T10:40:55.896Z,974.21
2022-08-18T10:41:55.876Z,974.21
2022-08-18T10:42:56.149Z,974.16
2022-08-18T10:43:57.463Z,974.21
2022-08-18T10:44:55.839Z,974.19
2022-08-18T10:46:24.592Z,974.13
2022-08-18T10:46:56.821Z,974.13
2022-08-18T10:47:55.808Z,974.07
2022-08-18T10:48:55.788Z,974.10
2022-08-18T10:49:55.768Z,974.07
2022-08-18T10:50:55.758Z,974.09
2022-08-18T10:51:59.573Z,973.99
2022-08-18T10:53:17.015Z,973.91
2022-08-18T10:53:56.729Z,973.91
2022-08-18T10:54:55.712Z,973.93
2022-08-18T10:55:55.690Z,973.87
2022-08-18T10:56:55.790Z,973.93
2022-08-18T10:57:55.713Z,973.95
2022-08-18T10:58:55.672Z,973.97
2022-08-18T10:59:55.664Z,973.93
2022-08-18T11:00:55.637Z,973.91
2022-08-18T11:01:55.623Z,973.90
2022-08-18T11:03:02.592Z,973.92
2022-08-18T11:03:56.783Z,973.97
2022-08-18T11:04:58.910Z,973.92
2022-08-18T11:05:55.573Z,973.92
2022-08-18T11:06:55.563Z,973.91
2022-08-18T11:07:56.717Z,973.96
2022-08-18T11:08:57.767Z,973.88
2022-08-18T11:10:13.289Z,973.95
2022-08-18T11:11:27.350Z,973.80
2022-08-18T11:11:59.470Z,973.84
2022-08-18T11:12:57.095Z,973.79
2022-08-18T11:13:55.489Z,973.81
2022-08-18T11:14:55.460Z,973.75
2022-08-18T11:15:55.456Z,973.72
2022-08-18T11:16:55.439Z,973.71
2022-08-18T11:17:55.433Z,973.65
2022-08-18T11:18:55.408Z,973.70
2022-08-18T11:19:55.395Z,973.64
2022-08-18T11:20:55.377Z,973.62
2022-08-18T11:21:55.376Z,973.63
2022-08-18T11:22:55.724Z,973.68
2022-08-18T11:23:55.348Z,973.68
2022-08-18T11:24:55.328Z,973.64
2022-08-18T11:25:55.310Z,973.69
2022-08-18T11:26:55.367Z,973.54
2022-08-18T11:27:55.290Z,973.52
2022-08-18T11:28:55.319Z,973.45
2022-08-18T11:29:55.269Z,973.39
2022-08-18T11:30:55.270Z,973.31
2022-08-18T11:31:55.231Z,973.30
2022-08-18T11:32:55.511Z,973.23
2022-08-18T11:33:55.221Z,973.24
2022-08-18T11:34:55.202Z,973.17
2022-08-18T11:35:55.190Z,973.18
2022-08-18T11:36:55.172Z,973.18
2022-08-18T11:37:55.174Z,973.21
2022-08-18T11:38:55.154Z,973.19
2022-08-18T11:39:55.221Z,973.19
2022-08-18T11:41:56.177Z,973.26
2022-08-18T11:42:55.105Z,973.20
2022-08-18T11:43:55.121Z,973.24
2022-08-18T11:44:55.137Z,973.26
2022-08-18T11:45:55.077Z,973.29
2022-08-18T11:46:55.055Z,973.32
2022-08-18T11:47:55.046Z,973.27
2022-08-18T11:48:55.048Z,973.28
2022-08-18T11:49:56.026Z,973.30
2022-08-18T11:50:55.008Z,973.27
2022-08-18T11:51:54.996Z,973.28
2022-08-18T11:52:55.231Z,973.19
2022-08-18T11:53:59.281Z,973.23
2022-08-18T11:54:55.957Z,973.21
2022-08-18T11:55:54.956Z,973.22
2022-08-18T11:56:54.957Z,973.30
2022-08-18T11:58:55.919Z,973.32
2022-08-18T12:00:00.418Z,973.29
2022-08-18T12:01:55.869Z,973.27
2022-08-18T12:02:55.230Z,973.32
2022-08-18T12:03:54.862Z,973.22
2022-08-18T12:04:54.842Z,973.23
2022-08-18T12:05:56.005Z,973.18
2022-08-18T12:06:54.813Z,973.24
2022-08-18T12:07:57.591Z,973.18
2022-08-18T12:08:57.204Z,973.18
2022-08-18T12:10:18.384Z,973.15
2022-08-18T12:10:55.763Z,973.12
2022-08-18T12:11:54.772Z,973.09
2022-08-18T12:12:55.007Z,973.02
2022-08-18T12:13:54.724Z,973.00
2022-08-18T12:15:02.926Z,973.08
2022-08-18T12:15:55.704Z,973.03
2022-08-18T12:16:54.704Z,972.99
2022-08-18T12:17:54.704Z,973.04
2022-08-18T12:18:55.669Z,973.05
2022-08-18T12:19:54.656Z,973.06
2022-08-18T12:20:55.629Z,973.05
2022-08-18T12:21:54.649Z,973.07
2022-08-18T12:22:56.839Z,973.09
2022-08-18T12:23:54.599Z,973.11
2022-08-18T12:24:54.597Z,973.13
2022-08-18T12:25:54.777Z,973.14
2022-08-18T12:26:54.559Z,973.20
2022-08-18T12:27:54.563Z,973.24
2022-08-18T12:28:54.537Z,973.17
2022-08-18T12:29:55.542Z,973.16
2022-08-18T12:30:54.519Z,973.12
2022-08-18T12:31:54.501Z,973.16
2022-08-18T12:33:01.002Z,973.08
2022-08-18T12:34:01.063Z,973.08
2022-08-18T12:34:55.467Z,973.03
2022-08-18T12:35:54.477Z,972.95
2022-08-18T12:36:54.430Z,972.92
2022-08-18T12:38:11.049Z,972.84
2022-08-18T12:38:56.591Z,972.81
2022-08-18T12:39:54.442Z,972.80
2022-08-18T12:40:54.382Z,972.75
2022-08-18T12:41:54.422Z,972.76
2022-08-18T12:42:55.766Z,972.79
2022-08-18T12:43:59.123Z,972.75
2022-08-18T12:44:56.416Z,972.68
2022-08-18T12:45:54.385Z,972.70
2022-08-18T12:46:54.314Z,972.66
2022-08-18T12:47:54.293Z,972.65
2022-08-18T12:48:54.418Z,972.67
2022-08-18T12:49:54.277Z,972.72
2022-08-18T12:51:55.606Z,972.74
2022-08-18T12:52:54.667Z,972.75
2022-08-18T12:53:59.429Z,972.74
2022-08-18T12:54:56.043Z,972.77
2022-08-18T12:55:54.208Z,972.74
2022-08-18T12:56:54.179Z,972.78
2022-08-18T12:57:54.168Z,972.80
2022-08-18T12:58:54.165Z,972.73
2022-08-18T12:59:54.149Z,972.73
2022-08-18T13:00:54.175Z,972.63
2022-08-18T13:01:58.647Z,972.55
2022-08-18T13:02:55.317Z,972.45